Time;durP1;ratioP1;P1;durP2;ratioP2;P2;SDS_P1;SDS_P2;PMS_P1;PMS_P2;Temp;Humidity;BMP_temperature;BMP_pressure;BME280_temperature;BME280_humidity;BME280_pressure;Samples;Min_cycle;Max_cycle;Signal;HPM_P1;HPM_P2
2023/05/05 00:00:34;;;;;;;7.40;3.95;;;16.60;99.90;;;;;;5051153;28;20108;-76
2023/05/05 00:03:00;;;;;;;5.97;4.45;;;16.60;99.90;;;;;;5051697;28;20028;-77
2023/05/05 00:05:25;;;;;;;7.07;4.20;;;16.60;99.90;;;;;;5052505;28;20036;-77
2023/05/05 00:07:51;;;;;;;8.98;4.70;;;16.60;99.90;;;;;;5050714;28;20056;-77
2023/05/05 00:10:17;;;;;;;13.02;4.68;;;16.60;99.90;;;;;;5052422;28;20029;-77
2023/05/05 00:12:42;;;;;;;7.00;4.50;;;16.60;99.90;;;;;;5054205;28;20033;-76
2023/05/05 00:15:08;;;;;;;6.13;4.55;;;16.70;99.90;;;;;;5071911;28;20032;-77
2023/05/05 00:17:34;;;;;;;7.65;4.60;;;16.70;99.90;;;;;;5071288;28;20027;-77
2023/05/05 00:19:59;;;;;;;8.20;5.03;;;16.60;99.90;;;;;;5070720;28;20025;-76
2023/05/05 00:22:25;;;;;;;7.78;4.47;;;16.70;99.90;;;;;;5071040;28;20458;-77
2023/05/05 00:24:50;;;;;;;5.82;4.40;;;16.70;99.90;;;;;;5070623;28;20050;-79
2023/05/05 00:27:16;;;;;;;5.07;4.38;;;16.70;99.90;;;;;;5071250;28;20024;-77
2023/05/05 00:29:42;;;;;;;9.38;4.45;;;16.70;99.90;;;;;;5070631;28;20045;-74
2023/05/05 00:32:08;;;;;;;8.38;4.90;;;16.70;99.90;;;;;;5056327;28;20496;-74
2023/05/05 00:34:33;;;;;;;6.45;4.68;;;16.70;99.90;;;;;;5075659;28;20071;-76
2023/05/05 00:36:59;;;;;;;8.57;4.88;;;16.60;99.90;;;;;;5057204;28;20047;-77
2023/05/05 00:39:25;;;;;;;8.18;4.43;;;16.50;99.90;;;;;;5075619;28;20099;-76
2023/05/05 00:41:50;;;;;;;8.20;4.88;;;16.50;99.90;;;;;;5074500;28;20074;-77
2023/05/05 00:44:16;;;;;;;7.38;4.82;;;16.50;99.90;;;;;;5073811;28;20047;-77
2023/05/05 00:46:42;;;;;;;6.63;4.93;;;16.50;99.90;;;;;;5074386;28;20119;-77
2023/05/05 00:49:08;;;;;;;10.35;5.60;;;16.50;99.90;;;;;;5075372;28;20081;-76
2023/05/05 00:51:34;;;;;;;9.68;5.07;;;16.60;99.90;;;;;;5075485;28;20033;-73
2023/05/05 00:54:00;;;;;;;7.60;5.40;;;16.50;99.90;;;;;;5073810;28;20063;-77
2023/05/05 00:56:26;;;;;;;10.77;4.85;;;16.50;99.90;;;;;;5057734;28;20028;-75
2023/05/05 00:58:52;;;;;;;7.35;5.07;;;16.50;99.90;;;;;;5057612;28;20047;-75
2023/05/05 01:01:18;;;;;;;11.07;5.40;;;16.50;99.90;;;;;;5057963;28;20032;-75
2023/05/05 01:03:44;;;;;;;7.22;5.07;;;16.50;99.90;;;;;;5074526;28;20043;-75
2023/05/05 01:06:09;;;;;;;7.75;5.07;;;16.60;99.90;;;;;;5073566;28;20024;-75
2023/05/05 01:09:07;;;;;;;6.72;4.57;;;16.50;99.90;;;;;;5057771;28;20029;-75
2023/05/05 01:11:50;;;;;;;10.38;5.35;;;16.50;99.90;;;;;;5057486;28;20028;-75
2023/05/05 01:14:17;;;;;;;8.43;5.28;;;16.50;99.90;;;;;;5074702;28;20020;-74
2023/05/05 01:17:19;;;;;;;8.02;4.72;;;16.50;99.90;;;;;;5057647;28;20035;-75
2023/05/05 01:20:11;;;;;;;9.55;4.97;;;16.50;99.90;;;;;;5074997;28;20100;-75
2023/05/05 01:22:44;;;;;;;6.95;4.70;;;16.50;99.90;;;;;;5057053;28;20070;-74
2023/05/05 01:25:43;;;;;;;7.45;5.15;;;16.50;99.90;;;;;;5074366;28;20029;-74
2023/05/05 01:28:30;;;;;;;8.95;4.82;;;16.60;99.90;;;;;;5055967;28;20063;-75
2023/05/05 01:31:27;;;;;;;10.80;4.82;;;16.60;99.90;;;;;;5055987;28;20079;-76
2023/05/05 01:34:07;;;;;;;9.77;4.28;;;16.60;99.90;;;;;;5039747;28;20046;-76
2023/05/05 01:36:39;;;;;;;8.15;4.85;;;16.60;99.90;;;;;;5074386;28;20035;-75
2023/05/05 01:39:10;;;;;;;9.65;5.25;;;16.60;99.90;;;;;;5056093;28;20056;-75
2023/05/05 01:41:42;;;;;;;10.45;5.00;;;16.60;99.90;;;;;;5056266;28;20056;-75
2023/05/05 01:44:12;;;;;;;8.00;4.78;;;16.60;99.90;;;;;;5055220;28;20044;-75
2023/05/05 01:46:37;;;;;;;8.18;4.75;;;16.60;99.90;;;;;;5056251;28;20111;-75
2023/05/05 01:49:05;;;;;;;7.35;4.68;;;16.50;99.90;;;;;;5073762;28;20028;-75
2023/05/05 01:51:31;;;;;;;8.05;5.32;;;16.50;99.90;;;;;;5056182;28;20025;-74
2023/05/05 01:54:00;;;;;;;8.57;5.25;;;16.50;99.90;;;;;;5055601;28;20036;-75
2023/05/05 01:56:28;;;;;;;7.82;5.47;;;16.50;99.90;;;;;;5073831;28;20529;-75
2023/05/05 01:58:55;;;;;;;7.72;5.00;;;16.50;99.90;;;;;;5055699;28;20037;-74
2023/05/05 02:01:24;;;;;;;9.77;6.00;;;16.50;99.90;;;;;;5072175;28;20503;-75
2023/05/05 02:03:51;;;;;;;13.02;5.72;;;16.40;99.90;;;;;;5055841;28;20471;-75
2023/05/05 02:06:19;;;;;;;8.07;5.40;;;16.40;99.90;;;;;;5055431;28;20071;-75
2023/05/05 02:08:47;;;;;;;12.48;5.43;;;16.40;99.90;;;;;;5073620;28;20052;-75
2023/05/05 02:11:14;;;;;;;8.32;4.93;;;16.40;99.90;;;;;;5073065;28;20028;-75
2023/05/05 02:13:41;;;;;;;6.95;5.03;;;16.40;99.90;;;;;;5055714;28;20082;-75
2023/05/05 02:16:08;;;;;;;7.40;5.05;;;16.30;99.90;;;;;;5055161;28;20028;-75
2023/05/05 02:18:35;;;;;;;7.63;5.00;;;16.30;99.90;;;;;;5073791;28;20060;-75
2023/05/05 02:21:02;;;;;;;7.63;4.88;;;16.40;99.90;;;;;;5054632;28;20021;-76
2023/05/05 02:23:28;;;;;;;7.18;5.45;;;16.30;99.90;;;;;;5055608;28;20115;-75
2023/05/05 02:25:58;;;;;;;6.30;5.20;;;16.30;99.90;;;;;;5071767;28;20032;-75
2023/05/05 02:28:38;;;;;;;6.75;4.82;;;16.30;99.90;;;;;;5055136;28;20048;-75
2023/05/05 02:31:05;;;;;;;13.55;5.07;;;16.30;99.90;;;;;;5054806;28;20020;-75
2023/05/05 02:33:34;;;;;;;6.93;4.93;;;16.30;99.90;;;;;;5071859;28;20033;-74
2023/05/05 02:36:09;;;;;;;7.85;4.50;;;16.30;99.90;;;;;;5071478;28;20086;-75
2023/05/05 02:38:40;;;;;;;6.38;4.57;;;16.30;99.90;;;;;;5055612;28;20024;-75
2023/05/05 02:41:11;;;;;;;7.93;4.30;;;16.30;99.90;;;;;;5054869;28;20124;-75
2023/05/05 02:43:39;;;;;;;11.07;4.68;;;16.30;99.90;;;;;;5055628;28;20051;-75
2023/05/05 02:46:05;;;;;;;10.10;5.30;;;16.30;99.90;;;;;;5072361;28;20016;-75
2023/05/05 02:48:31;;;;;;;6.15;4.32;;;16.30;99.90;;;;;;5073109;28;20027;-75
2023/05/05 02:50:56;;;;;;;6.20;4.50;;;16.30;99.90;;;;;;5071861;28;20077;-74
2023/05/05 02:53:25;;;;;;;7.88;4.63;;;16.30;99.90;;;;;;5054338;28;20048;-75
2023/05/05 02:55:54;;;;;;;5.25;4.68;;;16.30;99.90;;;;;;5072940;28;20025;-75
2023/05/05 02:58:39;;;;;;;7.18;4.72;;;16.30;99.90;;;;;;5054437;28;20044;-75
2023/05/05 03:01:22;;;;;;;8.43;4.35;;;16.30;99.90;;;;;;5070910;28;20054;-77
2023/05/05 03:03:56;;;;;;;6.00;4.57;;;16.30;99.90;;;;;;5073078;28;20044;-74
2023/05/05 03:06:26;;;;;;;6.85;4.95;;;16.30;99.90;;;;;;5054528;28;20025;-74
2023/05/05 03:09:05;;;;;;;6.43;4.78;;;16.30;99.90;;;;;;5072806;28;20373;-74
2023/05/05 03:11:33;;;;;;;6.72;4.55;;;16.30;99.90;;;;;;5072855;28;20088;-74
2023/05/05 03:14:11;;;;;;;6.10;4.60;;;16.30;99.90;;;;;;5072756;28;20493;-74
2023/05/05 03:16:39;;;;;;;5.28;4.20;;;16.30;99.90;;;;;;5072808;28;20042;-75
2023/05/05 03:19:09;;;;;;;7.95;4.88;;;16.40;99.90;;;;;;5054357;28;20104;-75
2023/05/05 03:21:35;;;;;;;9.75;4.80;;;16.40;99.90;;;;;;5054664;28;20382;-74
2023/05/05 03:24:14;;;;;;;8.68;4.57;;;16.30;99.90;;;;;;5054542;28;20039;-77
2023/05/05 03:26:40;;;;;;;8.00;5.32;;;16.20;99.90;;;;;;5054370;28;20032;-74
2023/05/05 03:29:06;;;;;;;9.90;5.38;;;16.30;99.90;;;;;;5053829;28;20053;-74
2023/05/05 03:31:32;;;;;;;7.97;5.40;;;16.30;99.90;;;;;;5054662;28;20043;-74
2023/05/05 03:33:58;;;;;;;7.68;5.07;;;16.20;99.90;;;;;;5054636;28;20032;-75
2023/05/05 03:36:23;;;;;;;7.90;4.95;;;16.20;99.90;;;;;;5054042;28;20028;-74
2023/05/05 03:38:49;;;;;;;6.45;4.68;;;16.20;99.90;;;;;;5054611;28;20377;-74
2023/05/05 03:41:14;;;;;;;6.32;4.80;;;16.20;99.90;;;;;;5054070;28;20028;-73
2023/05/05 03:43:40;;;;;;;8.65;5.28;;;16.20;99.90;;;;;;5054511;28;20028;-74
2023/05/05 03:46:06;;;;;;;7.00;4.75;;;16.20;99.90;;;;;;5053942;28;20024;-75
2023/05/05 03:48:32;;;;;;;8.05;4.93;;;16.20;99.90;;;;;;5072364;28;20024;-74
2023/05/05 03:50:58;;;;;;;5.63;4.60;;;16.20;99.90;;;;;;5054506;28;20031;-74
2023/05/05 03:53:24;;;;;;;6.32;4.45;;;16.20;99.90;;;;;;5053810;28;20028;-74
2023/05/05 03:55:51;;;;;;;5.97;4.90;;;16.10;99.90;;;;;;5072308;28;20021;-74
2023/05/05 03:58:17;;;;;;;7.15;4.72;;;16.10;99.90;;;;;;5053690;28;20433;-74
2023/05/05 04:00:42;;;;;;;9.00;5.13;;;16.10;99.90;;;;;;5054195;28;20035;-74
2023/05/05 04:03:08;;;;;;;6.25;5.00;;;16.10;99.90;;;;;;5053729;28;20109;-74
2023/05/05 04:05:34;;;;;;;5.65;4.45;;;16.10;99.90;;;;;;5054763;28;20028;-74
2023/05/05 04:08:00;;;;;;;8.90;4.75;;;16.10;99.90;;;;;;5058095;28;20021;-74
2023/05/05 04:10:26;;;;;;;9.60;4.82;;;16.10;99.90;;;;;;5075661;28;20417;-75
2023/05/05 04:12:51;;;;;;;8.40;5.00;;;16.10;99.90;;;;;;5075837;28;20031;-74
2023/05/05 04:15:17;;;;;;;8.05;5.00;;;16.20;99.90;;;;;;5057532;28;20117;-75
2023/05/05 04:17:43;;;;;;;6.88;4.95;;;16.20;99.90;;;;;;5075851;28;20055;-74
2023/05/05 04:20:08;;;;;;;7.75;4.80;;;16.20;99.90;;;;;;5075575;28;20029;-76
2023/05/05 04:22:34;;;;;;;8.48;4.72;;;16.20;99.90;;;;;;5058348;28;20031;-75
2023/05/05 04:25:00;;;;;;;6.15;4.47;;;16.30;99.90;;;;;;5076070;28;20080;-75
2023/05/05 04:27:27;;;;;;;7.82;5.40;;;16.40;99.90;;;;;;5075539;28;20032;-75
2023/05/05 04:29:53;;;;;;;8.25;4.53;;;16.40;99.90;;;;;;5057902;28;20056;-75
2023/05/05 04:32:18;;;;;;;8.23;4.55;;;16.40;99.90;;;;;;5057960;28;20024;-75
2023/05/05 04:34:44;;;;;;;6.60;4.18;;;16.40;99.90;;;;;;5058126;28;20085;-75
2023/05/05 04:37:10;;;;;;;6.60;3.85;;;16.50;99.90;;;;;;5057682;28;20099;-75
2023/05/05 04:39:35;;;;;;;6.35;4.13;;;16.50;99.90;;;;;;5057483;28;20021;-74
2023/05/05 04:42:01;;;;;;;6.50;3.80;;;16.50;99.90;;;;;;5057536;28;20035;-75
2023/05/05 04:44:27;;;;;;;7.65;3.90;;;16.50;99.90;;;;;;5057123;28;20453;-75
2023/05/05 04:46:52;;;;;;;6.43;3.80;;;16.60;99.90;;;;;;5057776;28;20021;-75
2023/05/05 04:49:18;;;;;;;8.63;3.55;;;16.60;99.90;;;;;;5074670;28;20373;-74
2023/05/05 04:51:43;;;;;;;7.18;3.45;;;16.60;99.90;;;;;;5057478;28;20020;-75
2023/05/05 04:54:09;;;;;;;6.00;3.00;;;16.70;99.90;;;;;;5056731;28;20098;-75
2023/05/05 04:56:35;;;;;;;6.63;3.38;;;16.60;99.90;;;;;;5075214;28;20025;-75
2023/05/05 04:59:01;;;;;;;6.38;3.40;;;16.70;99.90;;;;;;5057380;28;20405;-75
2023/05/05 05:01:27;;;;;;;4.50;2.92;;;16.70;99.90;;;;;;5056822;28;20032;-75
2023/05/05 05:03:52;;;;;;;4.35;2.90;;;16.70;99.90;;;;;;5057350;28;20082;-75
2023/05/05 05:06:18;;;;;;;6.03;3.00;;;16.70;99.90;;;;;;5056569;28;20476;-75
2023/05/05 05:08:43;;;;;;;5.60;3.35;;;16.80;99.90;;;;;;5056999;28;20024;-75
2023/05/05 05:11:09;;;;;;;7.80;3.22;;;16.80;99.90;;;;;;5056554;28;20408;-75
2023/05/05 05:13:35;;;;;;;6.53;3.13;;;16.80;99.90;;;;;;5074738;28;20111;-75
2023/05/05 05:16:00;;;;;;;5.13;3.03;;;16.80;99.90;;;;;;5074796;28;20029;-75
2023/05/05 05:18:26;;;;;;;7.03;2.97;;;16.90;99.90;;;;;;5057522;28;20523;-75
2023/05/05 05:20:52;;;;;;;3.58;2.78;;;16.90;99.90;;;;;;5057913;28;20025;-75
2023/05/05 05:23:17;;;;;;;4.45;2.90;;;16.90;99.90;;;;;;5074328;28;20063;-75
2023/05/05 05:25:43;;;;;;;6.20;2.67;;;17.00;99.90;;;;;;5056958;28;20021;-75
2023/05/05 05:28:09;;;;;;;5.47;3.15;;;17.00;99.90;;;;;;5056319;28;20044;-78
2023/05/05 05:30:34;;;;;;;6.93;3.00;;;17.10;99.90;;;;;;5056881;28;20025;-75
2023/05/05 05:33:00;;;;;;;3.90;2.83;;;17.20;99.90;;;;;;5057260;28;20068;-75
2023/05/05 05:35:26;;;;;;;7.13;3.58;;;17.20;99.90;;;;;;5056714;28;20040;-75
2023/05/05 05:37:52;;;;;;;6.32;3.20;;;17.20;99.90;;;;;;5056867;28;20499;-75
2023/05/05 05:40:18;;;;;;;5.32;3.10;;;17.20;99.90;;;;;;5056150;28;20557;-75
2023/05/05 05:42:43;;;;;;;6.45;3.15;;;17.20;99.90;;;;;;5056293;28;20389;-75
2023/05/05 05:45:09;;;;;;;4.47;3.13;;;17.30;99.90;;;;;;5056483;28;20052;-77
2023/05/05 05:47:35;;;;;;;5.70;2.80;;;17.30;99.90;;;;;;5055818;28;20462;-75
2023/05/05 05:50:01;;;;;;;5.60;3.50;;;17.40;99.90;;;;;;5074211;28;20020;-75
2023/05/05 05:52:26;;;;;;;8.05;3.00;;;17.40;99.90;;;;;;5055607;28;20381;-75
2023/05/05 05:54:52;;;;;;;7.07;3.20;;;17.40;99.90;;;;;;5052827;28;20089;-76
2023/05/05 05:57:17;;;;;;;8.18;2.85;;;17.50;99.90;;;;;;5073031;28;20028;-76
2023/05/05 05:59:43;;;;;;;4.93;2.70;;;17.50;99.90;;;;;;5070649;28;20107;-76
2023/05/05 06:02:09;;;;;;;5.50;2.83;;;17.60;99.90;;;;;;5070030;28;20122;-74
2023/05/05 06:04:35;;;;;;;4.75;2.80;;;17.60;99.90;;;;;;5078771;28;20081;-76
2023/05/05 06:07:00;;;;;;;4.30;2.97;;;17.70;99.90;;;;;;5084554;28;20415;-74
2023/05/05 06:09:26;;;;;;;5.88;2.90;;;17.70;99.90;;;;;;5077180;28;20043;-76
2023/05/05 06:11:51;;;;;;;4.10;3.10;;;17.80;99.90;;;;;;5074871;28;20032;-76
2023/05/05 06:14:17;;;;;;;4.22;2.80;;;17.90;99.90;;;;;;5084850;28;20028;-75
2023/05/05 06:16:43;;;;;;;4.00;3.10;;;17.90;99.90;;;;;;5084526;28;20069;-75
2023/05/05 06:19:09;;;;;;;3.78;2.80;;;17.90;99.90;;;;;;5080182;28;20025;-75
2023/05/05 06:21:35;;;;;;;5.07;2.60;;;17.90;99.90;;;;;;5069044;28;20030;-75
2023/05/05 06:24:01;;;;;;;8.23;3.70;;;18.00;99.90;;;;;;5055603;28;20028;-75
2023/05/05 06:26:27;;;;;;;4.93;3.05;;;18.10;99.90;;;;;;5083725;28;20127;-75
2023/05/05 06:28:52;;;;;;;3.35;2.58;;;18.20;99.90;;;;;;5068568;28;20536;-74
2023/05/05 06:31:18;;;;;;;5.32;2.80;;;18.30;99.90;;;;;;5074528;28;20492;-75
2023/05/05 06:33:44;;;;;;;3.45;2.55;;;18.40;99.90;;;;;;5084859;28;20062;-75
2023/05/05 06:36:09;;;;;;;4.75;2.28;;;18.40;99.90;;;;;;5090400;28;20107;-75
2023/05/05 06:38:35;;;;;;;3.50;2.25;;;18.40;99.90;;;;;;5062089;28;20021;-76
2023/05/05 06:41:01;;;;;;;5.43;2.50;;;18.40;99.90;;;;;;5083078;28;20035;-75
2023/05/05 06:43:28;;;;;;;5.80;2.50;;;18.40;99.90;;;;;;5072202;28;20029;-76
2023/05/05 06:45:53;;;;;;;5.85;2.40;;;18.50;99.90;;;;;;5079195;28;20113;-76
2023/05/05 06:48:19;;;;;;;4.57;2.13;;;18.50;99.90;;;;;;5082816;28;20059;-76
2023/05/05 06:50:45;;;;;;;8.25;2.30;;;18.60;99.90;;;;;;5067707;28;20093;-75
2023/05/05 06:53:10;;;;;;;5.00;2.35;;;18.60;99.90;;;;;;5074539;28;20032;-77
2023/05/05 06:55:36;;;;;;;4.72;2.00;;;18.70;99.90;;;;;;5083581;28;20036;-76
2023/05/05 06:58:02;;;;;;;3.97;2.28;;;18.70;99.90;;;;;;5058222;28;20032;-76
2023/05/05 07:00:27;;;;;;;4.25;2.10;;;18.80;99.90;;;;;;5053467;28;20123;-75
2023/05/05 07:02:53;;;;;;;5.28;2.30;;;18.80;99.90;;;;;;5056060;28;20024;-75
2023/05/05 07:05:19;;;;;;;3.45;2.00;;;18.80;99.90;;;;;;5070651;28;20461;-76
2023/05/05 07:07:55;;;;;;;4.30;2.10;;;18.80;99.90;;;;;;5085380;28;20020;-77
2023/05/05 07:10:22;;;;;;;5.43;1.92;;;18.80;99.90;;;;;;5082274;28;20032;-76
2023/05/05 07:12:48;;;;;;;6.20;2.13;;;18.90;99.90;;;;;;5068478;28;20030;-77
2023/05/05 07:15:13;;;;;;;2.50;1.90;;;18.80;99.90;;;;;;5073251;28;20032;-78
2023/05/05 07:17:39;;;;;;;4.20;1.98;;;18.80;99.90;;;;;;5058570;28;20032;-75
2023/05/05 07:20:07;;;;;;;3.75;2.30;;;18.80;99.90;;;;;;5061900;28;20411;-78
2023/05/05 07:22:32;;;;;;;4.00;1.90;;;18.90;99.90;;;;;;5061246;28;20036;-75
2023/05/05 07:24:58;;;;;;;2.92;1.88;;;18.90;99.90;;;;;;5075993;28;20032;-77
2023/05/05 07:27:24;;;;;;;4.38;2.00;;;18.80;99.90;;;;;;5055040;28;20016;-74
2023/05/05 07:29:50;;;;;;;2.83;1.85;;;18.90;99.90;;;;;;5070667;28;20550;-76
2023/05/05 07:32:15;;;;;;;4.07;2.17;;;18.90;99.90;;;;;;5067494;28;20072;-78
2023/05/05 07:34:41;;;;;;;4.80;2.08;;;18.80;99.90;;;;;;5087373;28;20465;-75
2023/05/05 07:37:07;;;;;;;2.60;1.75;;;18.90;99.90;;;;;;5087868;28;20092;-75
2023/05/05 07:39:32;;;;;;;3.55;1.98;;;18.80;99.90;;;;;;5084818;28;20430;-75
2023/05/05 07:41:58;;;;;;;5.20;2.33;;;18.80;99.90;;;;;;5092092;28;20032;-75
2023/05/05 07:44:24;;;;;;;2.53;1.83;;;18.80;99.90;;;;;;5092814;28;20024;-75
2023/05/05 07:46:50;;;;;;;2.95;1.73;;;18.80;99.90;;;;;;5092497;28;20121;-75
2023/05/05 07:49:16;;;;;;;2.38;1.50;;;18.80;99.90;;;;;;5082747;28;20032;-76
2023/05/05 07:51:41;;;;;;;6.63;1.90;;;18.80;99.90;;;;;;5077532;28;20060;-77
2023/05/05 07:54:07;;;;;;;10.80;2.20;;;18.80;99.90;;;;;;5053562;28;20036;-77
2023/05/05 07:56:33;;;;;;;4.50;1.75;;;18.80;99.90;;;;;;5056945;28;20394;-79
2023/05/05 07:58:58;;;;;;;7.32;2.20;;;18.80;99.90;;;;;;5062373;28;21329;-79
2023/05/05 08:01:24;;;;;;;4.32;1.73;;;18.90;99.90;;;;;;5061937;28;20031;-76
2023/05/05 08:03:50;;;;;;;4.00;1.60;;;18.90;99.90;;;;;;5076504;28;20412;-76
2023/05/05 08:06:20;;;;;;;3.67;1.52;;;18.90;99.90;;;;;;5059587;28;20104;-78
2023/05/05 08:08:47;;;;;;;4.70;1.88;;;19.00;99.90;;;;;;5058040;28;20032;-77
2023/05/05 08:11:13;;;;;;;3.55;2.15;;;19.00;99.90;;;;;;5059485;28;20115;-77
2023/05/05 08:13:41;;;;;;;3.53;1.90;;;19.00;99.90;;;;;;5078499;28;20082;-76
2023/05/05 08:16:07;;;;;;;2.33;1.40;;;19.10;99.90;;;;;;5063090;28;20020;-76
2023/05/05 08:18:36;;;;;;;3.83;1.60;;;19.10;99.90;;;;;;5092540;28;20031;-78
2023/05/05 08:21:02;;;;;;;1.67;1.40;;;19.10;99.90;;;;;;5079604;28;20507;-76
2023/05/05 08:23:28;;;;;;;2.80;1.85;;;19.10;99.90;;;;;;5060086;28;20592;-77
2023/05/05 08:25:54;;;;;;;2.28;1.70;;;19.20;99.90;;;;;;5072509;28;20047;-76
2023/05/05 08:28:19;;;;;;;4.22;1.73;;;19.20;99.90;;;;;;5060528;28;20383;-77
2023/05/05 08:30:45;;;;;;;3.03;1.42;;;19.20;99.90;;;;;;5077919;28;20033;-76
2023/05/05 08:33:11;;;;;;;2.58;1.58;;;19.20;99.90;;;;;;5076879;28;20036;-77
2023/05/05 08:35:36;;;;;;;4.47;1.60;;;19.20;99.90;;;;;;5081100;28;20473;-76
2023/05/05 08:38:02;;;;;;;4.40;1.60;;;19.30;99.90;;;;;;5086527;28;20115;-77
2023/05/05 08:40:35;;;;;;;4.63;1.75;;;19.40;99.90;;;;;;5059164;28;20037;-79
2023/05/05 08:43:01;;;;;;;4.65;1.23;;;19.40;99.90;;;;;;5088737;28;20549;-79
2023/05/05 08:45:28;;;;;;;2.97;1.50;;;19.50;99.90;;;;;;5060263;28;20060;-77
2023/05/05 08:47:59;;;;;;;4.32;1.65;;;19.60;99.90;;;;;;5056255;28;20489;-76
2023/05/05 08:50:26;;;;;;;3.38;1.75;;;19.60;99.90;;;;;;5061054;28;20527;-77
2023/05/05 08:53:10;;;;;;;2.63;1.50;;;19.60;99.90;;;;;;5076316;28;20103;-77
2023/05/05 08:55:54;;;;;;;4.50;1.58;;;19.70;99.90;;;;;;5057662;28;20077;-77
2023/05/05 08:58:22;;;;;;;2.75;1.60;;;20.00;99.90;;;;;;5058237;28;20692;-77
2023/05/05 09:00:49;;;;;;;4.88;1.60;;;20.10;99.90;;;;;;5058120;28;20091;-76
2023/05/05 09:03:15;;;;;;;4.50;1.40;;;20.20;99.90;;;;;;5058734;28;20032;-76
2023/05/05 09:05:42;;;;;;;2.75;1.52;;;20.40;99.90;;;;;;5073119;28;20487;-78
2023/05/05 09:08:09;;;;;;;4.50;1.30;;;20.50;99.90;;;;;;5086665;28;20028;-76
2023/05/05 09:10:38;;;;;;;2.88;1.65;;;20.50;99.90;;;;;;5076158;28;20039;-79
2023/05/05 09:13:05;;;;;;;1.73;1.42;;;20.60;99.90;;;;;;5076371;28;20028;-77
2023/05/05 09:15:31;;;;;;;3.15;1.40;;;20.60;99.90;;;;;;5059176;28;20032;-77
2023/05/05 09:17:58;;;;;;;2.97;1.20;;;20.70;99.90;;;;;;5069674;28;20120;-76
2023/05/05 09:20:27;;;;;;;4.82;1.48;;;20.70;99.90;;;;;;5057266;28;20031;-77
2023/05/05 09:22:52;;;;;;;2.08;1.42;;;20.70;99.90;;;;;;5087393;28;20060;-76
2023/05/05 09:25:18;;;;;;;2.20;1.10;;;20.70;99.90;;;;;;5074056;28;20496;-76
2023/05/05 09:27:46;;;;;;;4.68;1.40;;;20.70;99.90;;;;;;5058885;28;20095;-75
2023/05/05 09:30:25;;;;;;;1.20;1.08;;;20.80;99.90;;;;;;5075528;28;20041;-76
2023/05/05 09:32:53;;;;;;;2.78;1.30;;;20.80;99.90;;;;;;5057538;28;20560;-75
2023/05/05 09:35:19;;;;;;;2.92;1.20;;;20.90;99.90;;;;;;5074996;28;20477;-76
2023/05/05 09:37:45;;;;;;;2.13;1.30;;;21.00;99.90;;;;;;5072387;28;20032;-75
2023/05/05 09:40:13;;;;;;;1.67;1.55;;;21.00;99.90;;;;;;5057596;28;20032;-77
2023/05/05 09:42:39;;;;;;;3.92;1.80;;;21.10;99.90;;;;;;5056797;28;20450;-76
2023/05/05 09:45:14;;;;;;;4.40;1.65;;;21.20;99.90;;;;;;5075069;28;20072;-74
2023/05/05 09:47:40;;;;;;;2.03;1.25;;;21.30;99.90;;;;;;5080010;28;20461;-76
2023/05/05 09:50:06;;;;;;;4.63;1.30;;;21.40;99.90;;;;;;5057802;28;20021;-76
2023/05/05 09:52:32;;;;;;;3.13;1.20;;;21.40;99.90;;;;;;5075190;28;20024;-77
2023/05/05 09:54:57;;;;;;;5.75;1.05;;;21.40;99.90;;;;;;5058761;28;20396;-75
2023/05/05 09:57:32;;;;;;;6.63;1.30;;;21.40;99.90;;;;;;5085994;28;20059;-76
2023/05/05 10:00:03;;;;;;;2.40;1.45;;;21.50;99.90;;;;;;5067430;28;20074;-75
2023/05/05 10:02:36;;;;;;;3.08;1.10;;;21.50;99.90;;;;;;5056430;28;20354;-76
2023/05/05 10:05:13;;;;;;;2.80;1.13;;;21.50;99.90;;;;;;5056199;28;20044;-76
2023/05/05 10:07:41;;;;;;;1.98;1.27;;;21.60;99.90;;;;;;5070570;28;20029;-76
2023/05/05 10:10:12;;;;;;;2.13;0.95;;;21.60;99.90;;;;;;5091180;28;20051;-75
2023/05/05 10:12:39;;;;;;;2.17;1.23;;;21.70;99.90;;;;;;5090786;28;20115;-75
2023/05/05 10:15:06;;;;;;;4.85;1.15;;;21.70;99.90;;;;;;5074427;28;20041;-76
2023/05/05 10:17:35;;;;;;;3.33;1.38;;;21.80;99.90;;;;;;5069613;28;20493;-76
2023/05/05 10:20:02;;;;;;;1.77;1.08;;;21.80;99.90;;;;;;5072214;28;20024;-76
2023/05/05 10:22:32;;;;;;;3.40;1.02;;;21.80;99.90;;;;;;5088624;28;20077;-75
2023/05/05 10:25:02;;;;;;;2.70;1.10;;;21.80;99.90;;;;;;5086101;28;20114;-75
2023/05/05 10:27:29;;;;;;;1.15;0.63;;;21.80;99.50;;;;;;5076250;28;20580;-76
2023/05/05 10:30:03;;;;;;;2.13;0.68;;;21.70;99.70;;;;;;5036064;28;20038;-75
2023/05/05 10:32:42;;;;;;;1.77;1.05;;;21.60;99.90;;;;;;5036874;28;20055;-76
2023/05/05 10:35:11;;;;;;;2.30;0.70;;;21.60;99.90;;;;;;5034810;28;20025;-76
2023/05/05 10:37:38;;;;;;;1.95;0.90;;;21.60;98.80;;;;;;5032333;28;20021;-76
2023/05/05 10:40:04;;;;;;;0.95;0.70;;;21.70;99.10;;;;;;5036832;28;20033;-77
2023/05/05 10:42:30;;;;;;;4.25;1.30;;;21.70;98.20;;;;;;5033723;28;20055;-76
2023/05/05 10:44:56;;;;;;;1.48;0.80;;;21.90;98.60;;;;;;5033033;28;20037;-76
2023/05/05 10:47:23;;;;;;;3.58;1.00;;;22.00;98.80;;;;;;5035815;28;20437;-77
2023/05/05 10:50:30;;;;;;;1.55;0.70;;;22.20;98.10;;;;;;5034449;28;20029;-76
2023/05/05 10:53:11;;;;;;;2.55;0.98;;;22.30;97.60;;;;;;5024021;28;20168;-77
2023/05/05 10:55:57;;;;;;;1.45;0.98;;;22.30;97.30;;;;;;5030796;28;20045;-76
2023/05/05 10:58:42;;;;;;;2.03;0.75;;;22.30;96.10;;;;;;5031669;28;20029;-76
2023/05/05 11:01:08;;;;;;;2.08;0.70;;;22.50;96.20;;;;;;5025308;28;20037;-77
2023/05/05 11:03:34;;;;;;;2.80;0.73;;;22.40;95.60;;;;;;5033935;28;20120;-78
2023/05/05 11:06:03;;;;;;;1.20;0.70;;;22.50;95.90;;;;;;5033077;28;20433;-77
2023/05/05 11:08:42;;;;;;;1.55;0.70;;;22.60;96.10;;;;;;5032656;28;20025;-75
2023/05/05 11:11:09;;;;;;;4.35;1.20;;;22.60;95.70;;;;;;5032952;28;20061;-75
2023/05/05 11:13:36;;;;;;;1.55;1.02;;;22.70;96.60;;;;;;5044153;28;20029;-77
2023/05/05 11:16:02;;;;;;;1.92;0.80;;;22.70;96.60;;;;;;5043416;28;20061;-76
2023/05/05 11:18:34;;;;;;;1.10;0.75;;;22.80;96.50;;;;;;5033165;28;20088;-77
2023/05/05 11:21:01;;;;;;;;;;;22.90;95.40;;;;;;5040024;28;20112;-77
2023/05/05 11:23:27;;;;;;;1.45;0.65;;;23.00;95.50;;;;;;5034255;28;19956;-77
2023/05/05 11:25:54;;;;;;;1.15;0.75;;;23.10;94.80;;;;;;5032264;28;20108;-76
2023/05/05 11:28:24;;;;;;;1.10;0.73;;;23.20;96.40;;;;;;5041734;28;20049;-74
2023/05/05 11:31:17;;;;;;;2.53;0.98;;;23.20;93.90;;;;;;5054846;28;20033;-74
2023/05/05 11:33:42;;;;;;;1.38;1.00;;;23.30;93.60;;;;;;5042865;28;20048;-74
2023/05/05 11:36:16;;;;;;;2.00;1.00;;;23.40;94.00;;;;;;5064153;28;20034;-74
2023/05/05 11:38:51;;;;;;;1.23;0.82;;;23.50;93.80;;;;;;5071116;28;20024;-75
2023/05/05 11:41:25;;;;;;;2.25;0.82;;;23.40;93.40;;;;;;5069618;28;20061;-75
2023/05/05 11:44:08;;;;;;;4.90;1.10;;;23.40;93.40;;;;;;5041000;28;20507;-75
2023/05/05 11:46:34;;;;;;;3.25;1.00;;;23.40;92.90;;;;;;5054071;28;20028;-75
2023/05/05 11:48:59;;;;;;;2.28;0.93;;;23.20;92.50;;;;;;5073405;28;20066;-75
2023/05/05 11:51:25;;;;;;;2.13;1.00;;;23.10;91.50;;;;;;5075135;28;20109;-77
2023/05/05 11:53:51;;;;;;;1.73;0.80;;;23.10;92.20;;;;;;5055309;28;20377;-76
2023/05/05 11:56:21;;;;;;;3.30;0.90;;;23.10;91.70;;;;;;5054224;28;20036;-75
2023/05/05 11:59:07;;;;;;;1.98;0.82;;;23.20;91.90;;;;;;5054380;28;20044;-75
2023/05/05 12:01:34;;;;;;;1.95;0.80;;;23.20;92.20;;;;;;5056518;28;20370;-76
2023/05/05 12:03:59;;;;;;;2.30;0.80;;;23.10;91.00;;;;;;5054753;28;20021;-76
2023/05/05 12:06:26;;;;;;;1.17;0.68;;;23.00;91.50;;;;;;5063949;28;20020;-74
2023/05/05 12:08:52;;;;;;;2.00;0.88;;;23.00;91.40;;;;;;5087822;28;20024;-77
2023/05/05 12:11:18;;;;;;;1.75;0.65;;;22.90;90.20;;;;;;5086337;28;20119;-75
2023/05/05 12:13:43;;;;;;;6.45;0.90;;;23.00;90.00;;;;;;5067583;28;20580;-75
2023/05/05 12:16:14;;;;;;;1.13;0.80;;;23.00;90.20;;;;;;5077284;28;20032;-75
2023/05/05 12:18:40;;;;;;;0.93;0.60;;;23.10;90.90;;;;;;5070522;28;20027;-76
2023/05/05 12:21:14;;;;;;;1.30;0.77;;;23.00;91.30;;;;;;5074948;28;20225;-76
2023/05/05 12:23:40;;;;;;;3.85;1.25;;;22.90;90.50;;;;;;5068468;28;20178;-75
2023/05/05 12:26:06;;;;;;;2.20;0.80;;;22.90;90.90;;;;;;5062767;28;20509;-75
2023/05/05 12:28:45;;;;;;;1.05;0.80;;;22.80;90.90;;;;;;5057254;28;20053;-75
2023/05/05 12:31:10;;;;;;;2.47;0.63;;;22.80;91.60;;;;;;5035339;28;20061;-75
2023/05/05 12:33:40;;;;;;;1.60;0.70;;;22.90;90.70;;;;;;5039560;28;20086;-75
2023/05/05 12:36:07;;;;;;;1.42;0.73;;;22.90;91.00;;;;;;5051991;28;20058;-75
2023/05/05 12:38:33;;;;;;;2.17;1.23;;;22.90;90.70;;;;;;5050232;28;20127;-76
2023/05/05 12:40:59;;;;;;;2.45;0.98;;;22.90;90.70;;;;;;5042626;28;20037;-76
2023/05/05 12:43:28;;;;;;;2.67;0.75;;;23.00;90.10;;;;;;5036668;28;20033;-76
2023/05/05 12:46:04;;;;;;;1.90;0.63;;;23.10;90.30;;;;;;5035337;28;20025;-75
2023/05/05 12:48:29;;;;;;;3.38;0.57;;;23.10;88.00;;;;;;5036101;28;20045;-76
2023/05/05 12:51:19;;;;;;;2.78;0.80;;;23.10;87.80;;;;;;5036658;28;20560;-75